createdAt,value
2018-01-13T00:00:05.377Z,110.93
2018-01-13T00:01:07.871Z,104.20
2018-01-13T00:02:10.369Z,107.25
2018-01-13T00:03:12.858Z,107.70
2018-01-13T00:04:15.317Z,113.25
2018-01-13T00:05:17.803Z,126.18
2018-01-13T00:06:20.301Z,116.57
2018-01-13T00:07:22.765Z,123.38
2018-01-13T00:08:25.244Z,112.00
2018-01-13T00:09:27.707Z,108.40
2018-01-13T00:10:30.224Z,115.70
2018-01-13T00:11:32.709Z,106.53
2018-01-13T00:12:35.181Z,118.55
2018-01-13T00:13:37.670Z,114.45
2018-01-13T00:14:40.213Z,107.25
2018-01-13T00:15:42.688Z,133.15
2018-01-13T00:16:45.178Z,128.95
2018-01-13T00:17:47.646Z,111.25
2018-01-13T00:18:50.121Z,110.20
2018-01-13T00:19:52.585Z,109.05
2018-01-13T00:20:55.050Z,120.25
2018-01-13T00:21:57.537Z,107.65
2018-01-13T00:23:00.020Z,127.65
2018-01-13T00:24:02.491Z,118.85
2018-01-13T00:25:04.971Z,106.30
2018-01-13T00:26:07.431Z,119.45
2018-01-13T00:27:09.918Z,128.10
2018-01-13T00:28:12.382Z,112.88
2018-01-13T00:29:14.872Z,112.95
2018-01-13T00:30:17.350Z,115.75
2018-01-13T00:31:19.837Z,126.65
2018-01-13T00:32:22.336Z,113.68
2018-01-13T00:33:24.815Z,119.75
2018-01-13T00:34:27.277Z,117.30
2018-01-13T00:35:29.759Z,107.78
2018-01-13T00:36:32.244Z,107.87
2018-01-13T00:37:34.748Z,97.65
2018-01-13T00:38:37.214Z,108.35
2018-01-13T00:39:39.689Z,99.97
2018-01-13T00:40:42.162Z,109.32
2018-01-13T00:41:44.640Z,101.85
2018-01-13T00:42:47.130Z,98.10
2018-01-13T00:43:49.590Z,97.12
2018-01-13T00:44:52.064Z,108.20
2018-01-13T00:45:54.559Z,99.25
2018-01-13T00:46:57.044Z,114.85
2018-01-13T00:47:59.537Z,99.43
2018-01-13T00:49:02.011Z,99.03
2018-01-13T00:50:04.492Z,94.47
2018-01-13T00:51:06.986Z,94.55
2018-01-13T00:52:09.538Z,113.88
2018-01-13T00:53:12.088Z,106.90
2018-01-13T00:54:14.577Z,107.55
2018-01-13T00:55:17.046Z,109.93
2018-01-13T00:56:19.510Z,105.47
2018-01-13T00:57:21.986Z,101.68
2018-01-13T00:58:24.484Z,109.43
2018-01-13T00:59:26.950Z,95.75
2018-01-13T01:00:29.427Z,107.75
2018-01-13T01:01:31.893Z,102.93
2018-01-13T01:02:34.360Z,95.25
2018-01-13T01:03:36.844Z,98.53
2018-01-13T01:04:39.320Z,99.10
2018-01-13T01:05:41.794Z,99.97
2018-01-13T01:06:44.278Z,95.78
2018-01-13T01:07:46.773Z,103.97
2018-01-13T01:08:49.258Z,98.93
2018-01-13T01:09:51.721Z,94.72
2018-01-13T01:10:54.185Z,95.60
2018-01-13T01:11:56.653Z,91.22
2018-01-13T01:12:59.139Z,96.05
2018-01-13T01:14:01.621Z,100.28
2018-01-13T01:15:04.143Z,100.72
2018-01-13T01:16:06.643Z,96.55
2018-01-13T01:17:09.124Z,96.35
2018-01-13T01:18:11.588Z,100.35
2018-01-13T01:19:14.069Z,97.22
2018-01-13T01:20:16.539Z,86.05
2018-01-13T01:21:19.019Z,90.87
2018-01-13T01:22:21.547Z,103.65
2018-01-13T01:23:24.020Z,90.75
2018-01-13T01:24:26.517Z,91.10
2018-01-13T01:25:28.999Z,93.78
2018-01-13T01:26:31.470Z,95.75
2018-01-13T01:27:33.952Z,93.40
2018-01-13T01:28:36.414Z,95.30
2018-01-13T01:29:38.898Z,95.65
2018-01-13T01:30:41.381Z,91.95
2018-01-13T01:31:43.857Z,88.15
2018-01-13T01:32:46.366Z,86.30
2018-01-13T01:33:48.844Z,99.30
2018-01-13T01:34:51.326Z,92.62
2018-01-13T01:35:53.793Z,92.40
2018-01-13T01:36:56.276Z,94.30
2018-01-13T01:37:58.773Z,84.20
2018-01-13T01:39:01.247Z,87.97
2018-01-13T01:40:03.743Z,90.03
2018-01-13T01:41:06.206Z,92.57
2018-01-13T01:42:08.675Z,92.53
2018-01-13T01:43:11.164Z,102.90
2018-01-13T01:44:13.643Z,91.03
2018-01-13T01:45:16.130Z,99.93
2018-01-13T01:46:18.598Z,87.95
2018-01-13T01:47:21.073Z,81.60
2018-01-13T01:48:26.498Z,79.97
2018-01-13T01:49:28.961Z,83.07
2018-01-13T01:50:31.446Z,84.13
2018-01-13T01:51:33.929Z,88.37
2018-01-13T01:52:36.390Z,81.37
2018-01-13T01:53:38.876Z,73.12
2018-01-13T01:54:41.356Z,77.90
2018-01-13T01:55:43.880Z,79.62
2018-01-13T01:56:46.347Z,78.30
2018-01-13T01:57:48.849Z,94.70
2018-01-13T01:58:51.318Z,82.68
2018-01-13T01:59:53.795Z,87.07
2018-01-13T02:00:56.279Z,78.15
2018-01-13T02:01:58.742Z,90.07
2018-01-13T02:03:01.225Z,78.95
2018-01-13T02:04:03.698Z,83.72
2018-01-13T02:05:06.173Z,89.47
2018-01-13T02:06:08.666Z,77.75
2018-01-13T02:07:11.135Z,78.07
2018-01-13T02:08:13.620Z,72.12
2018-01-13T02:09:16.104Z,79.78
2018-01-13T02:10:18.587Z,75.18
2018-01-13T02:11:21.092Z,82.75
2018-01-13T02:12:23.569Z,77.50
2018-01-13T02:13:26.053Z,68.00
2018-01-13T02:14:28.519Z,77.03
2018-01-13T02:15:30.986Z,79.55
2018-01-13T02:16:33.503Z,65.20
2018-01-13T02:17:35.979Z,69.20
2018-01-13T02:18:38.473Z,76.20
2018-01-13T02:19:40.938Z,78.55
2018-01-13T02:20:43.411Z,74.12
2018-01-13T02:21:45.920Z,78.72
2018-01-13T02:22:48.403Z,88.05
2018-01-13T02:23:50.858Z,84.60
2018-01-13T02:24:53.326Z,79.30
2018-01-13T02:25:55.794Z,69.93
2018-01-13T02:26:58.292Z,78.47
2018-01-13T02:28:00.762Z,69.93
2018-01-13T02:29:03.221Z,75.22
2018-01-13T02:30:05.684Z,70.25
2018-01-13T02:31:08.191Z,70.53
2018-01-13T02:32:10.699Z,74.65
2018-01-13T02:33:13.183Z,69.25
2018-01-13T02:34:15.667Z,75.50
2018-01-13T02:35:18.146Z,67.75
2018-01-13T02:36:20.627Z,70.30
2018-01-13T02:37:23.140Z,69.32
2018-01-13T02:38:25.679Z,74.15
2018-01-13T02:39:28.146Z,71.55
2018-01-13T02:40:30.613Z,68.95
2018-01-13T02:41:33.094Z,67.12
2018-01-13T02:42:35.596Z,71.35
2018-01-13T02:43:38.076Z,69.35
2018-01-13T02:44:40.560Z,70.10
2018-01-13T02:45:43.042Z,64.93
2018-01-13T02:46:45.599Z,62.17
2018-01-13T02:47:48.101Z,65.32
2018-01-13T02:48:50.565Z,69.72
2018-01-13T02:49:53.047Z,68.62
2018-01-13T02:50:55.537Z,65.12
2018-01-13T02:51:58.008Z,62.60
2018-01-13T02:53:00.508Z,74.12
2018-01-13T02:54:03.012Z,74.10
2018-01-13T02:55:05.482Z,66.22
2018-01-13T02:56:07.942Z,69.45
2018-01-13T02:57:10.420Z,74.85
2018-01-13T02:58:12.932Z,70.43
2018-01-13T02:59:15.404Z,65.50
2018-01-13T03:00:17.879Z,71.78
2018-01-13T03:01:20.360Z,72.43
2018-01-13T03:02:22.829Z,59.30
2018-01-13T03:03:25.323Z,62.60
2018-01-13T03:04:27.859Z,72.62
2018-01-13T03:05:30.331Z,72.78
2018-01-13T03:06:32.799Z,68.12
2018-01-13T03:07:35.276Z,66.97
2018-01-13T03:08:37.772Z,56.55
2018-01-13T03:09:40.235Z,59.75
2018-01-13T03:10:43.070Z,59.42
2018-01-13T03:11:45.599Z,67.07
2018-01-13T03:12:48.076Z,59.80
2018-01-13T03:13:50.567Z,65.15
2018-01-13T03:14:53.049Z,65.90
2018-01-13T03:15:55.528Z,61.85
2018-01-13T03:16:58.006Z,60.53
2018-01-13T03:18:00.469Z,62.20
2018-01-13T03:19:02.964Z,64.32
2018-01-13T03:20:05.426Z,56.92
2018-01-13T03:21:07.930Z,61.63
2018-01-13T03:22:10.430Z,54.33
2018-01-13T03:23:12.907Z,59.60
2018-01-13T03:24:15.390Z,67.57
2018-01-13T03:25:17.850Z,57.67
2018-01-13T03:26:20.309Z,53.08
2018-01-13T03:27:22.784Z,58.85
2018-01-13T03:28:25.255Z,63.75
2018-01-13T03:29:27.759Z,55.72
2018-01-13T03:30:30.240Z,56.20
2018-01-13T03:31:32.731Z,53.25
2018-01-13T03:32:35.205Z,54.92
2018-01-13T03:33:37.665Z,55.50
2018-01-13T03:34:40.146Z,61.80
2018-01-13T03:35:42.604Z,56.67
2018-01-13T03:36:45.080Z,50.05
2018-01-13T03:37:47.592Z,55.72
2018-01-13T03:38:50.072Z,58.47
2018-01-13T03:39:52.568Z,51.83
2018-01-13T03:40:55.039Z,61.03
2018-01-13T03:41:57.506Z,55.22
2018-01-13T03:42:59.979Z,59.45
2018-01-13T03:44:02.460Z,49.42
2018-01-13T03:45:04.963Z,52.60
2018-01-13T03:46:07.453Z,52.40
2018-01-13T03:47:09.920Z,52.00
2018-01-13T03:48:12.377Z,58.50
2018-01-13T03:49:14.842Z,49.55
2018-01-13T03:50:17.344Z,58.20
2018-01-13T03:51:19.814Z,50.45
2018-01-13T03:52:22.270Z,55.17
2018-01-13T03:53:24.747Z,52.95
2018-01-13T03:54:27.224Z,57.92
2018-01-13T03:55:29.714Z,54.65
2018-01-13T03:56:32.181Z,55.38
2018-01-13T03:57:34.637Z,51.88
2018-01-13T03:58:37.172Z,54.55
2018-01-13T03:59:39.639Z,54.00
2018-01-13T04:00:42.129Z,55.58
2018-01-13T04:01:44.605Z,59.30
2018-01-13T04:02:47.087Z,50.97
2018-01-13T04:03:49.552Z,58.50
2018-01-13T04:04:52.031Z,51.60
2018-01-13T04:05:54.510Z,49.70
2018-01-13T04:06:56.965Z,57.65
2018-01-13T04:07:59.422Z,58.65
2018-01-13T04:09:01.967Z,51.03
2018-01-13T04:10:04.448Z,51.20
2018-01-13T04:11:06.931Z,53.78
2018-01-13T04:12:09.395Z,52.95
2018-01-13T04:13:11.854Z,48.20
2018-01-13T04:14:14.331Z,49.33
2018-01-13T04:15:16.812Z,53.95
2018-01-13T04:16:19.299Z,55.67
2018-01-13T04:17:21.781Z,48.35
2018-01-13T04:18:24.250Z,47.95
2018-01-13T04:19:26.731Z,48.25
2018-01-13T04:20:29.198Z,49.20
2018-01-13T04:21:31.700Z,47.88
2018-01-13T04:22:34.180Z,51.22
2018-01-13T04:23:36.656Z,45.55
2018-01-13T04:24:39.122Z,48.45
2018-01-13T04:25:41.598Z,46.00
2018-01-13T04:26:44.081Z,45.28
2018-01-13T04:27:46.556Z,50.12
2018-01-13T04:28:49.168Z,48.50
2018-01-13T04:29:51.765Z,48.03
2018-01-13T04:30:54.239Z,50.60
2018-01-13T04:31:56.744Z,48.60
2018-01-13T04:32:59.220Z,52.22
2018-01-13T04:34:01.677Z,53.03
2018-01-13T04:35:04.153Z,48.42
2018-01-13T04:36:06.617Z,49.72
2018-01-13T04:37:09.114Z,55.00
2018-01-13T04:38:11.581Z,48.58
2018-01-13T04:39:14.045Z,50.65
2018-01-13T04:40:16.519Z,53.70
2018-01-13T04:41:18.997Z,51.15
2018-01-13T04:42:21.496Z,51.05
2018-01-13T04:43:23.958Z,50.53
2018-01-13T04:44:26.419Z,52.00
2018-01-13T04:45:28.893Z,49.45
2018-01-13T04:46:31.367Z,50.72
2018-01-13T04:47:33.854Z,50.15
2018-01-13T04:48:36.328Z,45.88
2018-01-13T04:49:38.804Z,46.35
2018-01-13T04:50:41.262Z,51.65
2018-01-13T04:51:43.736Z,43.67
2018-01-13T04:52:46.229Z,43.30
2018-01-13T04:53:48.694Z,49.33
2018-01-13T04:54:51.168Z,45.58
2018-01-13T04:55:53.644Z,49.00
2018-01-13T04:56:56.106Z,39.25
2018-01-13T04:57:58.577Z,48.67
2018-01-13T04:59:01.055Z,46.47
2018-01-13T05:00:03.525Z,47.85
2018-01-13T05:01:06.001Z,44.58
2018-01-13T05:02:08.475Z,49.00
2018-01-13T05:03:10.961Z,47.60
2018-01-13T05:04:13.452Z,38.67
2018-01-13T05:05:15.918Z,47.65
2018-01-13T05:06:18.377Z,46.20
2018-01-13T05:07:20.860Z,51.67
2018-01-13T05:08:23.359Z,45.38
2018-01-13T05:09:25.817Z,41.78
2018-01-13T05:10:28.285Z,48.00
2018-01-13T05:11:30.753Z,47.72
2018-01-13T05:12:33.235Z,43.33
2018-01-13T05:13:35.741Z,44.00
2018-01-13T05:14:38.207Z,44.25
2018-01-13T05:15:40.665Z,43.30
2018-01-13T05:16:43.140Z,45.85
2018-01-13T05:17:45.620Z,42.85
2018-01-13T05:18:48.097Z,49.58
2018-01-13T05:19:50.562Z,43.42
2018-01-13T05:20:53.025Z,51.13
2018-01-13T05:21:55.500Z,49.38
2018-01-13T05:22:57.961Z,42.70
2018-01-13T05:24:00.470Z,41.15
2018-01-13T05:25:02.951Z,39.97
2018-01-13T05:26:05.439Z,45.00
2018-01-13T05:27:07.915Z,46.88
2018-01-13T05:28:10.373Z,47.30
2018-01-13T05:29:12.853Z,51.67
2018-01-13T05:30:15.334Z,41.58
2018-01-13T05:31:17.812Z,42.10
2018-01-13T05:32:20.273Z,46.65
2018-01-13T05:33:22.748Z,50.08
2018-01-13T05:34:25.247Z,46.92
2018-01-13T05:35:27.706Z,40.90
2018-01-13T05:36:30.254Z,43.20
2018-01-13T05:37:32.729Z,45.95
2018-01-13T05:38:35.211Z,46.88
2018-01-13T05:39:37.712Z,43.30
2018-01-13T05:40:40.187Z,45.05
2018-01-13T05:41:42.650Z,42.20
2018-01-13T05:42:45.114Z,45.58
2018-01-13T05:43:47.578Z,42.80
2018-01-13T05:44:50.058Z,41.15
2018-01-13T05:45:52.539Z,47.67
2018-01-13T05:46:55.018Z,43.22
2018-01-13T05:47:57.511Z,40.90
2018-01-13T05:48:59.988Z,40.47
2018-01-13T05:50:02.464Z,40.72
2018-01-13T05:51:04.923Z,43.90
2018-01-13T05:52:07.387Z,44.35
2018-01-13T05:53:09.845Z,37.28
2018-01-13T05:54:12.316Z,45.05
2018-01-13T05:55:14.797Z,43.38
2018-01-13T05:56:17.253Z,40.40
2018-01-13T05:57:19.716Z,42.05
2018-01-13T05:58:22.195Z,36.78
2018-01-13T05:59:24.671Z,39.75
2018-01-13T06:00:27.170Z,39.90
2018-01-13T06:01:29.633Z,46.25
2018-01-13T06:02:32.132Z,38.35
2018-01-13T06:03:34.607Z,38.88
2018-01-13T06:04:37.079Z,46.75
2018-01-13T06:05:39.590Z,45.05
2018-01-13T06:06:42.074Z,44.90
2018-01-13T06:07:44.529Z,39.30
2018-01-13T06:08:47.003Z,36.95
2018-01-13T06:09:49.484Z,43.87
2018-01-13T06:10:51.970Z,35.70
2018-01-13T06:11:54.453Z,38.65
2018-01-13T06:12:56.928Z,36.10
2018-01-13T06:13:59.399Z,41.53
2018-01-13T06:15:01.878Z,36.50
2018-01-13T06:16:04.371Z,38.10
2018-01-13T06:17:06.897Z,39.83
2018-01-13T06:18:09.354Z,38.67
2018-01-13T06:19:11.826Z,36.67
2018-01-13T06:20:14.289Z,37.85
2018-01-13T06:21:16.807Z,38.92
2018-01-13T06:22:19.269Z,39.38
2018-01-13T06:23:21.755Z,38.53
2018-01-13T06:24:24.214Z,39.80
2018-01-13T06:25:26.736Z,36.85
2018-01-13T06:26:29.244Z,40.53
2018-01-13T06:27:31.701Z,34.00
2018-01-13T06:28:34.172Z,38.65
2018-01-13T06:29:36.669Z,36.00
2018-01-13T06:30:39.143Z,37.47
2018-01-13T06:31:41.671Z,36.42
2018-01-13T06:32:44.668Z,34.95
2018-01-13T06:33:47.168Z,35.33
2018-01-13T06:34:49.649Z,32.85
2018-01-13T06:35:52.124Z,36.42
2018-01-13T06:36:54.623Z,31.80
2018-01-13T06:37:57.100Z,37.60
2018-01-13T06:38:59.580Z,37.65
2018-01-13T06:40:02.064Z,32.47
2018-01-13T06:41:04.531Z,36.65
2018-01-13T06:42:07.028Z,33.50
2018-01-13T06:43:09.486Z,34.70
2018-01-13T06:44:11.973Z,38.15
2018-01-13T06:45:14.444Z,32.53
2018-01-13T06:46:16.943Z,39.58
2018-01-13T06:47:19.438Z,38.90
2018-01-13T06:48:21.912Z,40.35
2018-01-13T06:49:24.378Z,37.22
2018-01-13T06:50:26.837Z,34.78
2018-01-13T06:51:29.316Z,30.85
2018-01-13T06:52:31.811Z,32.20
2018-01-13T06:53:34.274Z,36.22
2018-01-13T06:54:36.753Z,43.03
2018-01-13T06:55:39.227Z,39.55
2018-01-13T06:56:41.706Z,34.80
2018-01-13T06:57:44.209Z,34.22
2018-01-13T06:58:46.692Z,33.50
2018-01-13T06:59:49.154Z,32.25
2018-01-13T07:00:51.626Z,35.75
2018-01-13T07:01:54.094Z,42.88
2018-01-13T07:02:56.614Z,33.88
2018-01-13T07:03:59.090Z,37.30
2018-01-13T07:05:01.551Z,34.97
2018-01-13T07:06:04.031Z,35.97
2018-01-13T07:07:06.511Z,35.95
2018-01-13T07:08:09.005Z,33.65
2018-01-13T07:09:11.461Z,34.08
2018-01-13T07:10:13.940Z,37.50
2018-01-13T07:11:16.422Z,42.28
2018-01-13T07:12:18.900Z,35.10
2018-01-13T07:13:21.404Z,37.08
2018-01-13T07:14:23.866Z,35.03
2018-01-13T07:15:26.343Z,34.05
2018-01-13T07:16:28.845Z,34.83
2018-01-13T07:17:31.318Z,33.78
2018-01-13T07:18:33.803Z,36.63
2018-01-13T07:19:36.284Z,34.25
2018-01-13T07:20:38.760Z,39.50
2018-01-13T07:21:41.235Z,38.92
2018-01-13T07:22:43.722Z,37.30
2018-01-13T07:23:46.219Z,41.95
2018-01-13T07:24:48.727Z,42.58
2018-01-13T07:25:51.220Z,38.70
2018-01-13T07:26:53.717Z,38.72
2018-01-13T07:27:56.262Z,33.85
2018-01-13T07:28:58.753Z,34.63
2018-01-13T07:30:01.228Z,32.00
2018-01-13T07:31:03.708Z,39.00
2018-01-13T07:32:06.183Z,33.72
2018-01-13T07:33:08.638Z,34.17
2018-01-13T07:34:11.122Z,35.72
2018-01-13T07:35:13.605Z,40.15
2018-01-13T07:36:16.084Z,29.80
2018-01-13T07:37:18.546Z,33.45
2018-01-13T07:38:21.019Z,31.95
2018-01-13T07:39:23.509Z,30.88
2018-01-13T07:40:25.984Z,25.60
2018-01-13T07:41:28.460Z,33.70
2018-01-13T07:42:30.940Z,39.15
2018-01-13T07:43:33.441Z,32.83
2018-01-13T07:44:35.939Z,37.13
2018-01-13T07:45:38.402Z,34.00
2018-01-13T07:46:40.880Z,35.33
2018-01-13T07:47:43.353Z,29.95
2018-01-13T07:48:45.830Z,34.40
2018-01-13T07:49:48.323Z,33.25
2018-01-13T07:50:50.796Z,32.85
2018-01-13T07:51:53.257Z,33.47
2018-01-13T07:52:55.732Z,35.97
2018-01-13T07:53:58.204Z,31.73
2018-01-13T07:55:00.686Z,32.40
2018-01-13T07:56:03.145Z,30.62
2018-01-13T07:57:05.627Z,29.77
2018-01-13T07:58:08.100Z,36.58
2018-01-13T07:59:10.621Z,31.23
2018-01-13T08:00:13.124Z,36.03
2018-01-13T08:01:15.596Z,32.10
2018-01-13T08:02:18.054Z,31.90
2018-01-13T08:03:20.509Z,24.63
2018-01-13T08:04:22.976Z,26.73
2018-01-13T08:05:25.476Z,27.37
2018-01-13T08:06:27.938Z,29.17
2018-01-13T08:07:30.400Z,27.75
2018-01-13T08:08:32.873Z,31.02
2018-01-13T08:09:35.392Z,30.75
2018-01-13T08:10:37.870Z,28.90
2018-01-13T08:11:40.343Z,26.73
2018-01-13T08:12:42.812Z,33.95
2018-01-13T08:13:45.277Z,29.80
2018-01-13T08:14:47.752Z,25.30
2018-01-13T08:15:50.230Z,29.77
2018-01-13T08:16:52.704Z,28.02
2018-01-13T08:17:55.180Z,30.80
2018-01-13T08:18:57.642Z,24.60
2018-01-13T08:20:00.108Z,32.75
2018-01-13T08:21:02.586Z,28.33
2018-01-13T08:22:05.063Z,27.77
2018-01-13T08:23:07.537Z,26.85
2018-01-13T08:24:09.997Z,27.17
2018-01-13T08:25:12.465Z,28.62
2018-01-13T08:26:14.959Z,28.62
2018-01-13T08:27:17.422Z,29.87
2018-01-13T08:28:19.903Z,27.15
2018-01-13T08:29:22.389Z,26.92
2018-01-13T08:30:24.854Z,30.37
2018-01-13T08:31:27.511Z,29.73
2018-01-13T08:32:29.979Z,31.25
2018-01-13T08:33:32.445Z,32.30
2018-01-13T08:34:34.901Z,30.15
2018-01-13T08:35:37.361Z,27.13
2018-01-13T08:36:39.837Z,24.90
2018-01-13T08:37:42.315Z,28.15
2018-01-13T08:38:44.791Z,28.92
2018-01-13T08:39:47.250Z,28.42
2018-01-13T08:40:49.723Z,34.67
2018-01-13T08:41:52.209Z,33.22
2018-01-13T08:42:54.733Z,27.73
2018-01-13T08:43:57.165Z,31.67
2018-01-13T08:44:59.629Z,30.10
2018-01-13T08:46:02.103Z,27.95
2018-01-13T08:47:04.589Z,29.23
2018-01-13T08:48:07.068Z,31.20
2018-01-13T08:49:09.541Z,30.98
2018-01-13T08:50:12.042Z,31.95
2018-01-13T08:51:14.470Z,30.37
2018-01-13T08:52:16.958Z,30.90
2018-01-13T08:53:19.421Z,26.90
2018-01-13T08:54:21.882Z,29.02
2018-01-13T08:55:24.351Z,28.48
2018-01-13T08:56:26.810Z,34.63
2018-01-13T08:57:29.307Z,20.65
2018-01-13T08:58:31.765Z,35.15
2018-01-13T08:59:34.235Z,28.45
2018-01-13T09:00:36.702Z,30.27
2018-01-13T09:01:52.068Z,27.98
2018-01-13T09:02:54.535Z,31.85
2018-01-13T09:03:56.994Z,25.15
2018-01-13T09:04:59.465Z,29.48
2018-01-13T09:06:02.570Z,20.67
2018-01-13T09:07:05.066Z,22.95
2018-01-13T09:08:07.544Z,33.70
2018-01-13T09:09:10.030Z,25.95
2018-01-13T09:10:12.486Z,26.48
2018-01-13T09:11:14.941Z,29.33
2018-01-13T09:12:17.428Z,26.90
2018-01-13T09:13:19.920Z,28.15
2018-01-13T09:14:22.382Z,31.05
2018-01-13T09:15:24.847Z,27.17
2018-01-13T09:16:27.590Z,22.45
2018-01-13T09:17:30.064Z,27.27
2018-01-13T09:18:32.564Z,25.35
2018-01-13T09:19:35.045Z,26.62
2018-01-13T09:20:37.555Z,24.00
2018-01-13T09:21:39.985Z,30.02
2018-01-13T09:22:42.460Z,37.65
2018-01-13T09:23:44.931Z,25.02
2018-01-13T09:24:47.389Z,26.17
2018-01-13T09:25:49.845Z,27.45
2018-01-13T09:26:52.324Z,27.05
2018-01-13T09:27:54.809Z,28.33
2018-01-13T09:28:57.296Z,21.92
2018-01-13T09:29:59.761Z,22.02
2018-01-13T09:31:02.222Z,25.88
2018-01-13T09:32:04.682Z,26.92
2018-01-13T09:33:08.320Z,23.23
2018-01-13T09:34:10.814Z,21.95
2018-01-13T09:35:13.285Z,22.02
2018-01-13T09:36:15.741Z,21.27
2018-01-13T09:37:18.260Z,25.70
2018-01-13T09:38:20.728Z,18.95
2018-01-13T09:39:23.204Z,22.85
2018-01-13T09:40:25.853Z,21.05
2018-01-13T09:41:31.835Z,25.45
2018-01-13T09:42:34.468Z,18.95
2018-01-13T09:43:37.944Z,21.08
2018-01-13T09:44:40.449Z,22.35
2018-01-13T09:45:42.917Z,23.62
2018-01-13T09:46:45.392Z,24.65
2018-01-13T09:47:47.858Z,25.35
2018-01-13T09:48:50.334Z,22.45
2018-01-13T09:49:52.798Z,23.58
2018-01-13T09:50:55.257Z,24.10
2018-01-13T09:51:57.714Z,23.12
2018-01-13T09:53:00.192Z,22.62
2018-01-13T09:54:02.649Z,16.83
2018-01-13T09:55:05.114Z,19.98
2018-01-13T09:56:07.570Z,18.12
2018-01-13T09:57:10.030Z,19.30
2018-01-13T09:58:12.505Z,18.20
2018-01-13T09:59:14.972Z,18.27
2018-01-13T10:00:17.529Z,21.60
2018-01-13T10:01:19.986Z,21.90
2018-01-13T10:02:22.444Z,18.90
2018-01-13T10:03:24.941Z,14.07
2018-01-13T10:04:27.407Z,15.38
2018-01-13T10:05:29.869Z,16.67
2018-01-13T10:06:32.319Z,9.18
2018-01-13T10:07:34.789Z,14.55
2018-01-13T10:08:37.267Z,20.20
2018-01-13T10:09:39.727Z,19.70
2018-01-13T10:10:42.208Z,20.30
2018-01-13T10:11:44.681Z,22.67
2018-01-13T10:12:47.157Z,21.65
2018-01-13T10:13:49.709Z,23.55
2018-01-13T10:14:52.188Z,20.83
2018-01-13T10:15:54.646Z,22.27
2018-01-13T10:16:57.120Z,22.52
2018-01-13T10:17:59.578Z,24.63
2018-01-13T10:19:02.056Z,25.70
2018-01-13T10:20:04.514Z,24.48
2018-01-13T10:21:06.975Z,20.92
2018-01-13T10:22:09.452Z,22.00
2018-01-13T10:23:11.924Z,24.80
2018-01-13T10:24:14.385Z,29.08
2018-01-13T10:25:16.847Z,19.10
2018-01-13T10:26:19.312Z,20.00
2018-01-13T10:27:21.770Z,18.12
2018-01-13T10:28:24.244Z,24.83
2018-01-13T10:29:26.731Z,19.73
2018-01-13T10:30:29.210Z,19.23
2018-01-13T10:31:31.737Z,17.30
2018-01-13T10:32:34.205Z,23.10
2018-01-13T10:33:36.678Z,18.30
2018-01-13T10:34:39.146Z,16.85
2018-01-13T10:35:41.616Z,15.30
2018-01-13T10:36:44.112Z,13.65
2018-01-13T10:37:46.569Z,18.40
2018-01-13T10:38:49.048Z,19.08
2018-01-13T10:39:51.506Z,19.92
2018-01-13T10:40:54.030Z,20.23
2018-01-13T10:41:56.492Z,16.80
2018-01-13T10:42:58.967Z,15.55
2018-01-13T10:44:01.440Z,20.12
2018-01-13T10:45:03.931Z,14.80
2018-01-13T10:46:06.404Z,20.25
2018-01-13T10:47:08.862Z,19.02
2018-01-13T10:48:11.326Z,17.70
2018-01-13T10:49:13.781Z,15.88
2018-01-13T10:50:16.234Z,15.77
2018-01-13T10:51:18.707Z,12.85
2018-01-13T10:52:22.045Z,14.52
2018-01-13T10:53:24.498Z,15.65
2018-01-13T10:54:26.954Z,16.52
2018-01-13T10:55:29.409Z,14.38
2018-01-13T10:56:31.866Z,16.05
2018-01-13T10:57:34.326Z,13.48
2018-01-13T10:58:36.801Z,14.40
2018-01-13T10:59:39.281Z,18.48
2018-01-13T11:00:41.752Z,10.68
2018-01-13T11:01:44.227Z,15.35
2018-01-13T11:02:46.686Z,13.45
2018-01-13T11:03:49.148Z,11.57
2018-01-13T11:04:51.611Z,16.80
2018-01-13T11:05:54.084Z,15.18
2018-01-13T11:06:56.533Z,15.73
2018-01-13T11:07:59.002Z,11.23
2018-01-13T11:09:01.465Z,15.27
2018-01-13T11:10:03.918Z,17.10
2018-01-13T11:11:06.388Z,14.40
2018-01-13T11:12:08.988Z,15.27
2018-01-13T11:13:11.451Z,21.50
2018-01-13T11:14:13.935Z,13.45
2018-01-13T11:15:16.537Z,15.25
2018-01-13T11:16:19.008Z,18.67
2018-01-13T11:17:21.465Z,16.12
2018-01-13T11:18:23.937Z,15.27
2018-01-13T11:19:26.394Z,12.30
2018-01-13T11:20:28.880Z,13.40
2018-01-13T11:21:31.361Z,15.30
2018-01-13T11:22:33.929Z,16.80
2018-01-13T11:23:36.386Z,18.27
2018-01-13T11:24:38.847Z,15.80
2018-01-13T11:25:41.302Z,13.32
2018-01-13T11:26:43.754Z,11.55
2018-01-13T11:27:46.211Z,14.70
2018-01-13T11:28:48.671Z,13.45
2018-01-13T11:29:51.138Z,20.33
2018-01-13T11:30:53.618Z,11.07
2018-01-13T11:31:56.082Z,13.20
2018-01-13T11:32:58.552Z,21.08
2018-01-13T11:34:01.017Z,17.45
2018-01-13T11:35:03.492Z,29.40
2018-01-13T11:36:05.949Z,21.50
2018-01-13T11:37:08.413Z,21.17
2018-01-13T11:38:10.888Z,20.15
2018-01-13T11:39:13.348Z,15.27
2018-01-13T11:40:15.815Z,20.80
2018-01-13T11:41:18.277Z,18.33
2018-01-13T11:42:20.752Z,15.45
2018-01-13T11:43:23.244Z,16.95
2018-01-13T11:44:25.715Z,14.20
2018-01-13T11:45:28.174Z,16.00
2018-01-13T11:46:30.765Z,17.37
2018-01-13T11:47:33.234Z,11.98
2018-01-13T11:48:35.709Z,11.85
2018-01-13T11:49:38.197Z,14.48
2018-01-13T11:50:40.658Z,16.35
2018-01-13T11:51:43.129Z,12.60
2018-01-13T11:52:45.586Z,13.48
2018-01-13T11:53:48.046Z,12.55
2018-01-13T11:54:50.525Z,13.45
2018-01-13T11:55:52.985Z,14.57
2018-01-13T11:56:55.454Z,13.48
2018-01-13T11:57:57.927Z,14.00
2018-01-13T11:59:00.390Z,13.40
2018-01-13T12:00:02.874Z,14.30
2018-01-13T12:01:05.338Z,15.02
2018-01-13T12:02:07.816Z,16.02
2018-01-13T12:03:10.316Z,11.65
2018-01-13T12:04:12.789Z,13.27
2018-01-13T12:05:15.255Z,9.65
2018-01-13T12:06:17.717Z,11.70
2018-01-13T12:07:20.171Z,12.37
2018-01-13T12:08:22.644Z,11.73
2018-01-13T12:09:25.098Z,14.23
2018-01-13T12:10:27.562Z,11.98
2018-01-13T12:11:30.024Z,12.10
2018-01-13T12:12:32.496Z,11.48
2018-01-13T12:13:34.962Z,12.32
2018-01-13T12:14:37.432Z,12.85
2018-01-13T12:15:39.922Z,12.00
2018-01-13T12:16:42.382Z,15.95
2018-01-13T12:17:44.856Z,10.73
2018-01-13T12:18:47.313Z,10.55
2018-01-13T12:19:49.775Z,10.27
2018-01-13T12:20:52.251Z,10.15
2018-01-13T12:21:54.752Z,8.73
2018-01-13T12:22:57.235Z,14.48
2018-01-13T12:23:59.712Z,21.45
2018-01-13T12:25:02.170Z,10.25
2018-01-13T12:26:04.676Z,10.18
2018-01-13T12:27:07.128Z,11.77
2018-01-13T12:28:09.590Z,10.35
2018-01-13T12:29:12.060Z,13.27
2018-01-13T12:30:14.531Z,13.57
2018-01-13T12:31:17.007Z,10.90
2018-01-13T12:32:19.470Z,15.02
2018-01-13T12:33:21.943Z,11.30
2018-01-13T12:34:24.397Z,9.93
2018-01-13T12:35:26.920Z,10.73
2018-01-13T12:36:29.395Z,11.38
2018-01-13T12:37:31.872Z,12.48
2018-01-13T12:38:34.334Z,12.32
2018-01-13T12:39:36.797Z,9.50
2018-01-13T12:40:39.257Z,8.52
2018-01-13T12:41:41.731Z,13.85
2018-01-13T12:42:44.216Z,13.15
2018-01-13T12:43:46.665Z,8.15
2018-01-13T12:44:49.143Z,13.73
2018-01-13T12:45:51.601Z,11.68
2018-01-13T12:46:54.083Z,14.23
2018-01-13T12:47:56.556Z,16.67
2018-01-13T12:48:59.018Z,13.65
2018-01-13T12:50:01.489Z,9.15
2018-01-13T12:51:03.964Z,12.93
2018-01-13T12:52:06.422Z,10.20
2018-01-13T12:53:08.896Z,12.37
2018-01-13T12:54:11.349Z,11.70
2018-01-13T12:55:13.811Z,10.73
2018-01-13T12:56:16.267Z,8.52
2018-01-13T12:57:18.727Z,8.75
2018-01-13T12:58:21.178Z,11.25
2018-01-13T12:59:23.647Z,10.48
2018-01-13T13:00:26.119Z,11.45
2018-01-13T13:01:28.582Z,9.68
2018-01-13T13:02:31.051Z,13.30
2018-01-13T13:03:33.528Z,12.35
2018-01-13T13:04:35.991Z,10.73
2018-01-13T13:05:38.465Z,9.18
2018-01-13T13:06:41.122Z,11.00
2018-01-13T13:07:43.592Z,11.10
2018-01-13T13:08:46.057Z,8.93
2018-01-13T13:09:48.524Z,10.35
2018-01-13T13:10:50.978Z,9.20
2018-01-13T13:11:53.453Z,13.77
2018-01-13T13:12:55.918Z,8.63
2018-01-13T13:13:58.380Z,10.55
2018-01-13T13:15:00.854Z,11.20
2018-01-13T13:16:03.317Z,14.05
2018-01-13T13:17:05.782Z,8.25
2018-01-13T13:18:08.233Z,9.65
2018-01-13T13:19:10.718Z,9.90
2018-01-13T13:20:13.162Z,8.80
2018-01-13T13:21:15.625Z,10.90
2018-01-13T13:22:18.130Z,7.28
2018-01-13T13:23:20.626Z,7.50